createdAt,value
2022-12-23T00:00:16.874Z,12.77
2022-12-23T00:03:21.486Z,11.38
2022-12-23T00:06:26.047Z,20.75
2022-12-23T00:09:30.554Z,13.95
2022-12-23T00:12:47.499Z,16.70
2022-12-23T00:15:54.750Z,11.55
2022-12-23T00:18:59.295Z,13.35
2022-12-23T00:22:03.751Z,16.17
2022-12-23T00:25:08.701Z,10.00
2022-12-23T00:28:14.530Z,12.15
2022-12-23T00:31:21.930Z,11.95
2022-12-23T00:34:26.457Z,11.27
2022-12-23T00:37:33.160Z,10.30
2022-12-23T00:40:50.176Z,14.45
2022-12-23T00:43:54.629Z,10.82
2022-12-23T00:47:01.767Z,10.45
2022-12-23T00:50:03.813Z,10.02
2022-12-23T00:53:08.856Z,17.65
2022-12-23T00:56:13.376Z,12.48
2022-12-23T00:59:17.857Z,9.82
2022-12-23T01:02:37.476Z,11.50
2022-12-23T01:05:42.104Z,10.60
2022-12-23T01:08:46.641Z,16.27
2022-12-23T01:11:51.157Z,9.30
2022-12-23T01:14:55.652Z,12.90
2022-12-23T01:18:02.715Z,11.45
2022-12-23T01:21:08.265Z,9.00
2022-12-23T01:24:12.937Z,11.73
2022-12-23T01:27:17.442Z,13.05
2022-12-23T01:30:21.968Z,12.07
2022-12-23T01:33:29.157Z,15.60
2022-12-23T01:36:33.656Z,15.60
2022-12-23T01:39:38.153Z,17.73
2022-12-23T01:42:48.811Z,14.35
2022-12-23T01:45:53.391Z,15.35
2022-12-23T01:49:00.613Z,11.80
2022-12-23T01:52:05.055Z,12.18
2022-12-23T01:55:10.473Z,15.20
2022-12-23T01:58:16.451Z,14.85
2022-12-23T02:01:33.717Z,9.05
2022-12-23T02:04:40.858Z,8.55
2022-12-23T02:07:57.930Z,15.85
2022-12-23T02:11:14.619Z,10.82
2022-12-23T02:14:39.649Z,9.50
2022-12-23T02:17:47.694Z,8.23
2022-12-23T02:21:04.234Z,14.05
2022-12-23T02:24:35.578Z,9.38
2022-12-23T02:27:46.796Z,12.48
2022-12-23T02:30:58.718Z,10.10
2022-12-23T02:34:04.944Z,7.68
2022-12-23T02:37:13.472Z,11.38
2022-12-23T02:40:24.582Z,7.35
2022-12-23T02:43:32.771Z,12.85
2022-12-23T02:46:44.597Z,13.65
2022-12-23T02:49:50.868Z,9.70
2022-12-23T02:52:56.344Z,12.50
2022-12-23T02:56:02.203Z,15.70
2022-12-23T02:59:08.219Z,14.98
2022-12-23T03:02:15.548Z,14.93
2022-12-23T03:05:27.124Z,12.77
2022-12-23T03:08:33.242Z,15.50
2022-12-23T03:11:47.793Z,13.07
2022-12-23T03:15:09.744Z,17.70
2022-12-23T03:18:24.948Z,13.43
2022-12-23T03:21:33.685Z,17.52
2022-12-23T03:24:41.237Z,13.38
2022-12-23T03:27:47.848Z,14.88
2022-12-23T03:30:55.732Z,11.98
2022-12-23T03:34:05.343Z,17.58
2022-12-23T03:37:11.912Z,15.82
2022-12-23T03:40:18.633Z,10.65
2022-12-23T03:43:25.831Z,13.38
2022-12-23T03:46:32.926Z,9.90
2022-12-23T03:49:43.137Z,13.60
2022-12-23T03:52:51.003Z,11.07
2022-12-23T03:55:58.029Z,10.40
2022-12-23T03:59:04.497Z,9.27
2022-12-23T04:02:10.669Z,11.90
2022-12-23T04:05:23.708Z,10.30
2022-12-23T04:08:30.318Z,10.73
2022-12-23T04:11:36.163Z,8.65
2022-12-23T04:14:40.896Z,9.00
2022-12-23T04:17:45.762Z,17.88
2022-12-23T04:20:52.813Z,25.08
2022-12-23T04:23:57.251Z,21.67
2022-12-23T04:27:01.735Z,15.60
2022-12-23T04:30:06.445Z,16.85
2022-12-23T04:33:13.053Z,13.60
2022-12-23T04:36:20.295Z,12.40
2022-12-23T04:39:24.791Z,13.55
2022-12-23T04:42:29.344Z,20.40
2022-12-23T04:45:35.155Z,11.35
2022-12-23T04:48:39.629Z,10.68
2022-12-23T04:51:46.732Z,10.93
2022-12-23T04:54:51.195Z,11.73
2022-12-23T04:57:55.671Z,14.73
2022-12-23T05:01:06.849Z,11.68
2022-12-23T05:04:11.721Z,9.73
2022-12-23T05:07:18.867Z,9.93
2022-12-23T05:10:23.319Z,9.38
2022-12-23T05:13:27.992Z,9.98
2022-12-23T05:16:32.694Z,9.50
2022-12-23T05:19:37.195Z,6.40
2022-12-23T05:22:44.253Z,9.43
2022-12-23T05:25:52.844Z,10.43
2022-12-23T05:28:57.818Z,7.22
2022-12-23T05:32:02.367Z,7.47
2022-12-23T05:35:07.051Z,8.57
2022-12-23T05:38:14.265Z,8.30
2022-12-23T05:41:18.885Z,8.60
2022-12-23T05:44:23.374Z,10.07
2022-12-23T05:47:27.779Z,6.63
2022-12-23T05:50:32.712Z,8.02
2022-12-23T05:53:40.024Z,6.82
2022-12-23T05:56:44.425Z,6.78
2022-12-23T05:59:49.088Z,5.95
2022-12-23T06:02:54.511Z,6.05
2022-12-23T06:05:59.148Z,10.98
2022-12-23T06:09:06.471Z,8.43
2022-12-23T06:12:11.148Z,10.88
2022-12-23T06:15:15.836Z,4.65
2022-12-23T06:18:20.297Z,5.10
2022-12-23T06:21:28.373Z,5.45
2022-12-23T06:24:35.897Z,8.20
2022-12-23T06:27:40.546Z,6.45
2022-12-23T06:30:45.045Z,3.70
2022-12-23T06:33:49.547Z,2.65
2022-12-23T06:36:54.009Z,2.75
2022-12-23T06:40:01.370Z,6.05
2022-12-23T06:43:05.997Z,3.88
2022-12-23T06:46:10.781Z,4.22
2022-12-23T06:49:15.384Z,5.57
2022-12-23T06:52:20.125Z,6.85
2022-12-23T06:55:27.227Z,4.55
2022-12-23T06:58:32.002Z,2.72
2022-12-23T07:01:36.829Z,3.90
2022-12-23T07:04:41.439Z,2.83
2022-12-23T07:07:45.895Z,1.88
2022-12-23T07:10:52.944Z,4.97
2022-12-23T07:13:57.534Z,5.72
2022-12-23T07:17:02.057Z,4.30
2022-12-23T07:20:06.924Z,6.22
2022-12-23T07:23:11.406Z,5.65
2022-12-23T07:26:18.492Z,5.63
2022-12-23T07:29:22.959Z,4.70
2022-12-23T07:32:27.392Z,5.50
2022-12-23T07:35:31.869Z,3.70
2022-12-23T07:38:36.397Z,5.93
2022-12-23T07:41:43.601Z,5.70
2022-12-23T07:44:48.134Z,3.00
2022-12-23T07:47:54.929Z,3.97
2022-12-23T07:51:02.910Z,5.80
2022-12-23T07:54:07.406Z,6.22
2022-12-23T08:10:15.642Z,4.45
2022-12-23T08:13:20.402Z,9.02
2022-12-23T08:16:25.204Z,2.92
2022-12-23T08:19:30.110Z,2.10
2022-12-23T08:22:35.073Z,3.17
2022-12-23T08:25:42.513Z,3.05
2022-12-23T08:28:48.802Z,3.50
2022-12-23T08:31:54.322Z,3.70
2022-12-23T08:34:59.875Z,3.65
2022-12-23T08:38:04.647Z,4.22
2022-12-23T08:41:15.826Z,5.00
2022-12-23T08:44:20.940Z,6.75
2022-12-23T08:47:25.722Z,8.27
2022-12-23T08:50:30.496Z,12.02
2022-12-23T08:53:35.855Z,11.30
2022-12-23T08:56:44.895Z,7.78
2022-12-23T08:59:49.880Z,7.60
2022-12-23T09:02:54.784Z,5.55
2022-12-23T09:05:59.756Z,7.07
2022-12-23T09:09:04.734Z,7.43
2022-12-23T09:12:12.540Z,10.45
2022-12-23T09:15:17.304Z,9.68
2022-12-23T09:18:22.457Z,6.95
2022-12-23T09:21:27.816Z,5.93
2022-12-23T09:24:32.752Z,5.82
2022-12-23T09:27:40.221Z,6.28
2022-12-23T09:30:45.078Z,6.97
2022-12-23T09:33:51.220Z,7.70
2022-12-23T09:36:56.068Z,5.32
2022-12-23T09:40:00.841Z,7.28
2022-12-23T09:43:23.541Z,8.07
2022-12-23T09:46:32.859Z,8.18
2022-12-23T09:49:43.249Z,10.50
2022-12-23T09:53:00.248Z,11.90
2022-12-23T09:56:11.237Z,11.50
2022-12-23T09:59:31.473Z,10.35
2022-12-23T10:02:50.242Z,12.80
2022-12-23T10:06:05.674Z,11.40
2022-12-23T10:09:13.920Z,7.70
2022-12-23T10:12:28.098Z,7.78
2022-12-23T10:15:40.717Z,13.75
2022-12-23T10:18:53.050Z,9.77
2022-12-23T10:22:05.162Z,8.25
2022-12-23T10:25:18.076Z,8.52
2022-12-23T10:28:23.054Z,10.32
2022-12-23T10:31:46.210Z,11.60
2022-12-23T10:34:59.375Z,11.23
2022-12-23T10:38:15.889Z,9.27
2022-12-23T10:41:31.269Z,16.00
2022-12-23T10:45:02.175Z,15.05
2022-12-23T10:48:24.768Z,11.45
2022-12-23T10:51:34.091Z,10.48
2022-12-23T10:54:40.558Z,10.02
2022-12-23T10:57:45.994Z,7.75
2022-12-23T11:00:56.263Z,11.73
2022-12-23T11:04:11.766Z,8.13
2022-12-23T11:07:43.630Z,9.23
2022-12-23T11:10:44.855Z,9.57
2022-12-23T11:13:51.205Z,8.95
2022-12-23T11:16:56.051Z,9.23
2022-12-23T11:20:17.360Z,8.95
2022-12-23T11:23:28.392Z,10.27
2022-12-23T11:26:33.648Z,13.45
2022-12-23T11:29:41.633Z,10.85
2022-12-23T11:32:46.522Z,37.63
2022-12-23T11:36:04.444Z,12.85
2022-12-23T11:39:19.855Z,16.95
2022-12-23T11:42:31.022Z,9.68
2022-12-23T11:45:39.849Z,8.20
2022-12-23T11:48:47.530Z,11.18
2022-12-23T11:52:15.106Z,10.88
2022-12-23T11:55:29.315Z,9.35
2022-12-23T11:58:39.955Z,11.13
2022-12-23T12:01:50.921Z,9.55
2022-12-23T12:05:00.535Z,7.10
2022-12-23T12:08:13.464Z,6.72
2022-12-23T12:11:22.234Z,8.50
2022-12-23T12:14:35.701Z,7.60
2022-12-23T12:17:47.535Z,8.23
2022-12-23T12:20:56.702Z,7.43
2022-12-23T12:24:19.689Z,9.60
2022-12-23T12:27:41.236Z,6.85
2022-12-23T12:30:53.690Z,8.90
2022-12-23T12:34:05.755Z,9.10
2022-12-23T12:37:28.018Z,7.68
2022-12-23T12:40:41.815Z,5.82
2022-12-23T12:43:51.716Z,13.52
2022-12-23T12:47:04.131Z,14.63
2022-12-23T12:50:28.012Z,17.83
2022-12-23T12:53:33.728Z,10.43
2022-12-23T12:56:46.817Z,13.90
2022-12-23T12:59:56.453Z,11.80
2022-12-23T13:03:23.735Z,11.88
2022-12-23T13:06:35.016Z,11.70
2022-12-23T13:09:52.469Z,9.77
2022-12-23T13:13:07.561Z,18.73
2022-12-23T13:16:23.569Z,14.35
2022-12-23T13:19:36.580Z,12.02
2022-12-23T13:22:42.881Z,11.35
2022-12-23T13:25:53.216Z,8.95
2022-12-23T13:29:23.083Z,11.90
2022-12-23T13:32:40.195Z,9.20
2022-12-23T13:36:04.940Z,8.98
2022-12-23T13:39:26.816Z,12.48
2022-12-23T13:42:36.395Z,12.45
2022-12-23T13:45:45.646Z,9.88
2022-12-23T13:48:59.773Z,10.43
2022-12-23T13:52:12.980Z,12.13
2022-12-23T13:55:31.234Z,8.73
2022-12-23T13:58:36.923Z,10.85
2022-12-23T14:01:50.185Z,14.07
2022-12-23T14:05:02.598Z,17.25
2022-12-23T14:08:10.490Z,16.38
2022-12-23T14:11:19.539Z,13.48
2022-12-23T14:14:28.453Z,12.00
2022-12-23T14:17:47.891Z,13.32
2022-12-23T14:20:59.978Z,13.50
2022-12-23T14:24:33.269Z,16.60
2022-12-23T14:27:47.153Z,14.98
2022-12-23T14:30:52.111Z,16.10
2022-12-23T14:34:06.313Z,17.48
2022-12-23T14:37:34.913Z,14.63
2022-12-23T14:41:20.910Z,17.38
2022-12-23T14:44:46.733Z,20.88
2022-12-23T14:47:51.600Z,18.38
2022-12-23T14:51:04.374Z,18.98
2022-12-23T14:54:18.214Z,17.73
2022-12-23T14:57:37.989Z,16.60
2022-12-23T15:00:50.909Z,17.05
2022-12-23T15:04:01.371Z,21.88
2022-12-23T15:07:16.467Z,17.20
2022-12-23T15:10:25.718Z,22.15
2022-12-23T15:13:32.247Z,20.02
2022-12-23T15:16:39.826Z,17.75
2022-12-23T15:19:49.874Z,19.70
2022-12-23T15:23:03.177Z,18.15
2022-12-23T15:26:08.795Z,17.15
2022-12-23T15:29:15.218Z,14.30
2022-12-23T15:32:23.072Z,15.10
2022-12-23T15:35:31.613Z,17.10
2022-12-23T15:38:42.413Z,17.52
2022-12-23T15:41:49.204Z,17.67
2022-12-23T15:44:54.445Z,15.68
2022-12-23T15:47:59.487Z,20.45
2022-12-23T15:51:08.630Z,19.02
2022-12-23T15:54:25.006Z,19.05
2022-12-23T15:57:38.010Z,18.52
2022-12-23T16:00:52.406Z,21.52
2022-12-23T16:04:00.999Z,19.30
2022-12-23T16:07:06.367Z,21.20
2022-12-23T16:10:22.807Z,21.85
2022-12-23T16:13:28.672Z,19.88
2022-12-23T16:16:41.639Z,20.60
2022-12-23T16:19:49.329Z,21.50
2022-12-23T16:22:59.612Z,17.65
2022-12-23T16:26:07.151Z,14.60
2022-12-23T16:29:13.653Z,16.90
2022-12-23T16:32:20.539Z,10.07
2022-12-23T16:35:39.080Z,9.73
2022-12-23T16:38:43.919Z,10.25
2022-12-23T16:41:51.979Z,5.40
2022-12-23T16:44:57.508Z,7.13
2022-12-23T16:48:03.765Z,5.15
2022-12-23T16:51:11.923Z,5.00
2022-12-23T16:54:19.077Z,7.28
2022-12-23T16:57:26.530Z,7.20
2022-12-23T17:00:31.329Z,5.07
2022-12-23T17:03:36.170Z,5.03
2022-12-23T18:02:52.377Z,2.38
2022-12-23T18:06:01.630Z,1.70
2022-12-23T18:09:06.973Z,2.28
2022-12-23T18:12:20.274Z,2.55
2022-12-23T18:15:34.340Z,3.42
2022-12-23T18:18:46.227Z,7.57
2022-12-23T18:21:51.901Z,6.00
2022-12-23T18:24:59.366Z,6.35
2022-12-23T18:28:04.179Z,4.35
2022-12-23T18:31:16.695Z,2.65
2022-12-23T18:34:21.851Z,5.85
2022-12-23T18:37:27.070Z,3.55
2022-12-23T18:40:33.155Z,5.18
2022-12-23T18:43:37.882Z,3.28
2022-12-23T18:46:45.079Z,2.22
2022-12-23T18:49:49.685Z,4.57
2022-12-23T18:52:54.657Z,4.88
2022-12-23T18:55:59.599Z,1.45
2022-12-23T18:59:04.154Z,2.65
2022-12-23T19:02:14.406Z,1.80
2022-12-23T19:05:20.589Z,1.30
2022-12-23T19:08:27.275Z,1.38
2022-12-23T19:11:32.342Z,1.35
2022-12-23T19:14:36.864Z,1.88
2022-12-23T19:17:43.935Z,1.52
2022-12-23T19:20:48.773Z,3.28
2022-12-23T19:23:53.763Z,1.73
2022-12-23T19:26:58.387Z,3.53
2022-12-23T19:30:04.127Z,2.08
2022-12-23T19:33:11.403Z,2.92
2022-12-23T19:36:17.598Z,3.63
2022-12-23T19:39:24.291Z,3.58
2022-12-23T19:42:28.979Z,1.92
2022-12-23T19:45:33.525Z,3.47
2022-12-23T19:48:40.955Z,4.22
2022-12-23T19:51:45.484Z,3.20
2022-12-23T19:54:50.174Z,3.88
2022-12-23T19:57:54.664Z,3.40
2022-12-23T20:01:07.662Z,3.45
2022-12-23T20:04:15.340Z,2.92
2022-12-23T20:07:19.946Z,6.05
2022-12-23T20:10:24.619Z,2.20
2022-12-23T20:13:29.032Z,8.15
2022-12-23T20:16:33.821Z,4.38
2022-12-23T20:19:46.058Z,4.13
2022-12-23T20:22:50.996Z,2.50
2022-12-23T20:25:55.473Z,6.28
2022-12-23T20:29:00.295Z,2.88
2022-12-23T20:32:05.083Z,4.28
2022-12-23T20:35:12.719Z,2.53
2022-12-23T20:38:17.393Z,3.33
2022-12-23T20:41:22.892Z,2.85
2022-12-23T20:44:36.551Z,5.03
2022-12-23T20:47:42.086Z,3.50
2022-12-23T20:50:49.365Z,5.28
2022-12-23T20:53:54.195Z,6.45
2022-12-23T20:56:59.030Z,7.32
2022-12-23T21:00:06.416Z,5.75
2022-12-23T21:03:11.122Z,7.25
2022-12-23T21:06:18.779Z,5.07
2022-12-23T21:09:23.415Z,6.50
2022-12-23T21:12:28.057Z,7.18
2022-12-23T21:15:33.990Z,7.57
2022-12-23T21:18:38.473Z,4.18
2022-12-23T21:21:45.822Z,4.28
2022-12-23T21:24:50.250Z,5.53
2022-12-23T21:27:55.245Z,2.55
2022-12-23T21:30:59.814Z,6.63
2022-12-23T21:34:04.616Z,5.07
2022-12-23T21:37:11.793Z,2.38
2022-12-23T21:40:16.630Z,5.60
2022-12-23T21:43:21.066Z,7.85
2022-12-23T21:46:26.874Z,4.88
2022-12-23T21:49:31.307Z,8.63
2022-12-23T21:52:38.366Z,6.22
2022-12-23T21:55:42.834Z,9.93
2022-12-23T21:58:47.603Z,6.07
2022-12-23T22:01:52.204Z,11.30
2022-12-23T22:04:56.681Z,11.07
2022-12-23T22:08:03.748Z,12.25
2022-12-23T22:11:09.418Z,14.68
2022-12-23T22:14:15.732Z,12.05
2022-12-23T22:17:20.182Z,9.98
2022-12-23T22:20:24.636Z,9.50
2022-12-23T22:23:31.681Z,14.98
2022-12-23T22:26:36.422Z,13.07
2022-12-23T22:29:41.531Z,8.48
2022-12-23T22:32:45.971Z,12.73
2022-12-23T22:35:56.966Z,11.30
2022-12-23T22:39:05.345Z,13.43
2022-12-23T22:42:11.104Z,8.73
2022-12-23T22:45:15.612Z,12.85
2022-12-23T22:48:20.294Z,8.18
2022-12-23T22:51:26.276Z,7.07
2022-12-23T22:54:33.343Z,9.48
2022-12-23T22:57:38.695Z,14.40
2022-12-23T23:00:43.115Z,13.25
2022-12-23T23:03:47.561Z,8.73
2022-12-23T23:06:52.373Z,9.20
2022-12-23T23:09:59.468Z,7.85
2022-12-23T23:13:04.164Z,9.93
2022-12-23T23:16:09.122Z,8.88
2022-12-23T23:19:15.601Z,11.38
2022-12-23T23:22:20.731Z,6.15
2022-12-23T23:25:27.807Z,7.72
2022-12-23T23:28:32.288Z,7.15
2022-12-23T23:31:42.271Z,9.32
2022-12-23T23:34:47.570Z,15.50
2022-12-23T23:37:52.019Z,10.68
2022-12-23T23:40:59.894Z,7.75
2022-12-23T23:44:04.369Z,12.85
2022-12-23T23:47:08.795Z,9.60
2022-12-23T23:50:13.387Z,8.63
2022-12-23T23:53:18.416Z,12.32
2022-12-23T23:56:27.279Z,11.35
2022-12-23T23:59:33.305Z,9.52
